Nearby METAR Reports

 

K1V4 - St. Johnsbury, Vermont, USA
Distance from station: NNW 15mi, 24km
Updated: 09/20/2021 1:54pm

 
Temperature: 72°F , 22°C
Dew Point: 52°F , 11°C
Humidity: 50%
Barometer: 30.33 inHg , 1027.1 hPa
2021/09/20 17:54 K1V4 201754Z AUTO 22/11 A3033 RMK AO1 SLP266 T02170106 10217 20061 56016
KHIE - Whitefield, New Hampshire, USA
Distance from station: ENE 21mi, 34km
Updated: 09/20/2021 1:52pm
Clear
Clear
 Wind from calm
Wind: Calm
Temperature: 72°F , 22°C
Dew Point: 52°F , 11°C
Humidity: 50%
Barometer: 30.35 inHg , 1027.8 hPa
Clouds: Clear
Visibility: 10 miles , 16 km
2021/09/20 17:52 KHIE 201752Z AUTO 00000KT 10SM CLR 22/11 A3035 RMK AO2 SLP280 60000 T02170106 10222 20039 56013
KCDA - Lyndonville, Vermont, USA
Distance from station: NNW 25mi, 40km
Updated: 09/20/2021 2:15pm
Clear
Clear
 Wind from E
Wind: E 8 mph , 13 km/h
Temperature: 70°F , 21°C
Dew Point: 52°F , 11°C
Humidity: 53%
Barometer: 30.37 inHg , 1028.4 hPa
Clouds: Clear
Visibility: 10 miles , 16 km
2021/09/20 18:15 KCDA 201815Z AUTO 10007KT 080V150 10SM CLR 21/11 A3037 RMK AO2 T02050109
 
K1P1 - Plymouth, New Hampshire, USA
Distance from station: SSE 31mi, 49km
Updated: 09/20/2021 2:15pm
Clear
Clear
 Wind from SSE
Wind: SSE 3 mph , 6 km/h
Temperature: 72°F , 22°C
Dew Point: 50°F , 10°C
Humidity: 47%
Barometer: 30.35 inHg , 1027.8 hPa
Clouds: Clear
Visibility: 7 miles , 11 km
2021/09/20 18:15 K1P1 201815Z AUTO 16003KT 7SM CLR 22/10 A3035 RMK AO2 T02200102
KMWN - Mount Washington, New Hampshire, USA
Distance from station: E 31mi, 49km
Updated: 09/20/2021 1:53pm
Partly cloudy
Partly cloudy
 Wind from W
Wind: W 6 mph , 9 km/h
Temperature: 54°F , 12°C
Dew Point: 36°F , 2°C
Humidity: 51%
Clouds: Partly cloudy
Visibility: 110 miles , 176 km
Cloud details: Partly cloudy 500 ft
Partly cloudy 18000 ft
Partly cloudy 22000 ft
2021/09/20 17:53 KMWN 201753Z 27005KT 110SM SCT005 SCT180 SCT220 12/02 RMK 10128 20100
KMPV - Montpelier/Barre, Vermont, USA
Distance from station: W 32mi, 52km
Updated: 09/20/2021 1:51pm
Clear
Clear
 Wind from S
Wind: S 9 mph , 15 km/h
Temperature: 72°F , 22°C
Dew Point: 52°F , 11°C
Humidity: 50%
Barometer: 30.38 inHg , 1028.8 hPa
Clouds: Clear
Visibility: 10 miles , 16 km
2021/09/20 17:51 KMPV 201751Z AUTO 17008KT 10SM CLR 22/11 A3038 RMK AO2 SLP287 T02220106 10222 20078 56013
 
KMVL - Morrisville, Vermont, USA
Distance from station: WNW 41mi, 66km
Updated: 09/20/2021 1:54pm
Clear
Clear
 Wind from varies
Wind: varies 3 mph , 6 km/h
Temperature: 73°F , 23°C
Dew Point: 54°F , 12°C
Humidity: 50%
Barometer: 30.32 inHg , 1026.8 hPa
Clouds: Clear
Visibility: 10 miles , 16 km
2021/09/20 17:54 KMVL 201754Z AUTO VRB03KT 10SM CLR 23/12 A3032 RMK AO2 SLP271 T02280117 10228 20056 56016
KBML - Berlin, New Hampshire, USA
Distance from station: NE 44mi, 71km
Updated: 09/20/2021 1:52pm
Clear
Clear
 Wind from E
Wind: E 6 mph , 9 km/h
Temperature: 73°F , 23°C
Dew Point: 52°F , 11°C
Humidity: 47%
Barometer: 30.36 inHg , 1028.1 hPa
Clouds: Clear
Visibility: 10 miles , 16 km
2021/09/20 17:52 KBML 201752Z AUTO 10005KT 10SM CLR 23/11 A3036 RMK AO2 SLP282 T02280106 10228 20056 56009
KLEB - Lebanon, New Hampshire, USA
Distance from station: SSW 44mi, 71km
Updated: 09/20/2021 1:53pm
Few Clouds
Few Clouds
 Wind from varies
Wind: varies 5 mph , 7 km/h
Temperature: 73°F , 23°C
Dew Point: 50°F , 10°C
Humidity: 44%
Barometer: 30.34 inHg , 1027.4 hPa
Clouds: Few Clouds
Visibility: 10 miles , 16 km
Cloud details: Few Clouds 5000 ft
2021/09/20 17:53 KLEB 201753Z VRB04KT 10SM FEW050 23/10 A3034 RMK AO2 SLP270 T02280100 10233 20100 58018
 
KEFK - Newport State, Vermont, USA
Distance from station: NNW 49mi, 79km
Updated: 09/20/2021 2:15pm
Clear
Clear
 Wind from SSW
Wind: SSW 8 mph , 13 km/h
Temperature: 72°F , 22°C
Dew Point: 50°F , 10°C
Humidity: 47%
Barometer: 30.34 inHg , 1027.4 hPa
Clouds: Clear
Visibility: 10 miles , 16 km
2021/09/20 18:15 KEFK 201815Z AUTO 21007KT 10SM CLR 22/10 A3034 RMK AO2 T02240095
KIZG - Fryeburg, Maine, USA
Distance from station: ESE 50mi, 81km
Updated: 09/20/2021 1:54pm
Clear
Clear
 Wind from varies
Wind: varies 6 mph , 9 km/h
Temperature: 72°F , 22°C
Dew Point: 48°F , 9°C
Humidity: 44%
Barometer: 30.38 inHg , 1028.8 hPa
Clouds: Clear
Visibility: 10 miles , 16 km
2021/09/20 17:54 KIZG 201754Z AUTO VRB05KT 10SM CLR 22/09 A3038 RMK AO2 SLP287 T02220094 10222 20089 56009
KLCI - Laconia Muni, New Hampshire, USA
Distance from station: SSE 51mi, 82km
Updated: 09/20/2021 1:56pm
Clear
Clear
 Wind from SW
Wind: SW 8 mph , 13 km/h
Temperature: 72°F , 22°C
Dew Point: 50°F , 10°C
Humidity: 47%
Barometer: 30.37 inHg , 1028.4 hPa
Clouds: Clear
Visibility: 10 miles , 16 km
2021/09/20 17:56 KLCI 201756Z AUTO 22007KT 10SM CLR 22/10 A3037 RMK AO2 SLP285 T02170100 10217 20117 58010
 
K6B0 - Middlebury, Vermont, USA
Distance from station: WSW 61mi, 98km
Updated: 09/20/2021 2:15pm
Clear
Clear
 Wind from SSW
Wind: SSW 8 mph , 13 km/h
Temperature: 73°F , 23°C
Dew Point: 54°F , 12°C
Humidity: 50%
Barometer: 30.32 inHg , 1026.8 hPa
Clouds: Clear
Visibility: 10 miles , 16 km
2021/09/20 18:15 K6B0 201815Z AUTO 20007KT 10SM CLR 23/12 A3032 RMK AO2 T02260124
KBTV - Burlington, Vermont, USA
Distance from station: WNW 63mi, 102km
Updated: 09/20/2021 1:54pm
Clear
Clear
 Wind from S
Wind: S 13 mph , 20 km/h
Temperature: 75°F , 24°C
Dew Point: 52°F , 11°C
Humidity: 44%
Barometer: 30.30 inHg , 1026.1 hPa
Clouds: Clear
Visibility: 10 miles , 16 km
2021/09/20 17:54 KBTV 201754Z 18011KT 10SM CLR 24/11 A3030 RMK AO2 SLP261 T02390111 10244 20106 56011
KVSF - Springfield, Vermont, USA
Distance from station: SSW 67mi, 107km
Updated: 09/20/2021 1:54pm
Clear
Clear
 Wind from SE
Wind: SE 7 mph , 11 km/h
Temperature: 72°F , 22°C
Dew Point: 48°F , 9°C
Humidity: 44%
Barometer: 30.35 inHg , 1027.8 hPa
Clouds: Clear
Visibility: 10 miles , 16 km
2021/09/20 17:54 KVSF 201754Z AUTO 14006KT 10SM CLR 22/09 A3035 RMK AO2 SLP279 T02220094 10222 20083 56015
 
KRUT - Rutland State, Vermont, USA
Distance from station: SW 70mi, 113km
Updated: 09/20/2021 1:56pm
Clear
Clear
 Wind from calm
Wind: Calm
Temperature: 73°F , 23°C
Dew Point: 54°F , 12°C
Humidity: 50%
Barometer: 30.33 inHg , 1027.1 hPa
Clouds: Clear
Visibility: 10 miles , 16 km
2021/09/20 17:56 KRUT 201756Z AUTO 00000KT 10SM CLR 23/12 A3033 RMK AO2 SLP266 6//// T02280117 10228 20094 56014 PNO $
CWFQ - Frelighsburg, Quebec, Canada
Distance from station: NW 72mi, 116km
Updated: 09/20/2021 2:00pm

 Wind from SSW
Wind: SSW 5 mph , 7 km/h
Temperature: 72°F , 22°C
Dew Point: 50°F , 10°C
Humidity: 47%
2021/09/20 18:00 CWFQ 201800Z AUTO 21004KT 22/10 RMK AO1 SLP261 T02220097 58008
KCON - Concord, New Hampshire, USA
Distance from station: SSE 73mi, 117km
Updated: 09/20/2021 1:51pm
Clear
Clear
 Wind from SE
Wind: SE 7 mph , 11 km/h
Temperature: 72°F , 22°C
Dew Point: 52°F , 11°C
Humidity: 50%
Barometer: 30.37 inHg , 1028.4 hPa
Clouds: Clear
Visibility: 10 miles , 16 km
2021/09/20 17:51 KCON 201751Z AUTO 14006KT 10SM CLR 22/11 A3037 RMK AO2 SLP284 T02220106 10222 20106 58009
 
CWTT - Lac Memphremagog, Quebec, Canada
Distance from station: N 74mi, 119km
Updated: 09/20/2021 2:00pm

 Wind from WSW
Wind: WSW 5 mph , 7 km/h
Temperature: 68°F , 20°C
Dew Point: 50°F , 10°C
Humidity: 53%
2021/09/20 18:00 CWTT 201800Z AUTO 25004KT 20/10 RMK AO1 T01980099
KFSO - Highgate, Vermont, USA
Distance from station: NW 77mi, 123km
Updated: 09/20/2021 2:15pm
Clear
Clear
 Wind from SW
Wind: SW 3 mph , 6 km/h
Temperature: 77°F , 25°C
Dew Point: 54°F , 12°C
Humidity: 44%
Barometer: 30.30 inHg , 1026.1 hPa
Clouds: Clear
Visibility: 10 miles , 16 km
2021/09/20 18:15 KFSO 201815Z AUTO 23003KT 10SM CLR 25/12 A3030 RMK AO2 T02450116